Flight Track Log - Related Links

Times and Time Zones

All times are in EDT time to prevent confusion due to time zone crossing. See the N53NW flight status page for this flight to view local times or setup timezone preferences in your user account.

Time Position Orientation Groundspeed Altitude Reporting Facility
EDT Latitude Longitude Course Direction KTS MPH feet Rate Location/Type
Mon 11:04:26 AM 32.8333 -96.8500 128° Southeast 167 192 1,300  Level Dallas / Fort Worth TRACON
Mon 11:05:20 AM 32.8000 -96.8000 128° Southeast 211 243 4,600 3,000 Climbing Dallas / Fort Worth TRACON
Mon 11:06:20 AM 32.7667 -96.7333 121° Southeast 256 295 7,000 1,250 Climbing Dallas / Fort Worth TRACON
Mon 11:07:20 AM 32.7167 -96.6667 132° Southeast 275 316 7,100 446 Climbing Dallas / Fort Worth TRACON
Mon 11:08:21 AM 32.7667 -96.6333 29° Northeast 250 288 7,900 1,000 Climbing Dallas / Fort Worth TRACON
Mon 11:09:26 AM 32.8333 -96.6833 328° Northwest 277 319 9,200 2,055 Climbing Dallas / Fort Worth TRACON
Mon 11:11:22 AM 32.9650 -96.7717 331° Northwest 276 318 14,100 2,663 Climbing Fort Worth Center
Mon 11:12:24 AM 33.0331 -96.8189 330° Northwest 281 323 17,100 1,824 Climbing Fort Worth Center
Mon 11:13:27 AM 33.1058 -96.8689 330° Northwest 295 339 17,900 432 Climbing Fort Worth Center
Mon 11:14:29 AM 33.1928 -96.9300 330° Northwest 335 386 18,000 48 Climbing Fort Worth Center
Mon 11:15:31 AM 33.2744 -96.9864 330° Northwest 337 388 18,000  Level Fort Worth Center
Mon 11:16:33 AM 33.3606 -97.0453 330° Northwest 340 391 18,000  Level Fort Worth Center
Mon 11:17:35 AM 33.4433 -97.1017 330° Northwest 343 395 18,000  Level Fort Worth Center
Mon 11:18:37 AM 33.5522 -97.0964 North 367 422 18,000  Level Fort Worth Center
Mon 11:19:39 AM 33.6533 -97.0822 North 366 421 18,000  Level Fort Worth Center
Mon 11:20:41 AM 33.7617 -97.0692 North 364 419 18,000  Level Fort Worth Center
Mon 11:21:43 AM 33.8658 -97.0553 North 362 417 18,000  Level Fort Worth Center
Mon 11:23:00 AM 33.9592 -97.0424 North  Level FlightAware Approximate
Mon 11:23:47 AM 34.0647 -97.0317 North 361 415 18,000  Level Fort Worth Center
Mon 11:24:49 AM 34.1717 -97.0158 North 360 414 18,000  Level Fort Worth Center
Mon 11:25:52 AM 34.2714 -97.0014 North 361 415 18,000  Level Fort Worth Center
Mon 11:26:54 AM 34.3725 -96.9894 North 364 419 18,000  Level Fort Worth Center
Mon 11:27:56 AM 34.4661 -97.0111 349° North 354 407 18,000  Level Fort Worth Center
Mon 11:28:58 AM 34.5492 -97.0636 333° Northwest 338 389 18,000 -435 Level Fort Worth Center
Mon 11:30:00 AM 34.6319 -97.1192 331° Northwest 340 391 17,100 -1,403 Descending Fort Worth Center
Mon 11:31:02 AM 34.7303 -97.1858 331° Northwest 337 388 15,100 -1,864 Descending Fort Worth Center
Mon 11:31:43 AM 34.7833 -97.2194 333° Northwest 327 376 13,900 -1,645 Descending Fort Worth Center
Mon 11:32:04 AM 34.8092 -97.2394 328° Northwest 327 376 13,400 -1,814 Descending Fort Worth Center
Mon 11:32:26 AM 34.8450 -97.2597 335° Northwest 325 374 12,600 -1,742 Descending Fort Worth Center
Mon 11:33:06 AM 34.8894 -97.2917 329° Northwest 327 376 11,600 -1,364 Descending Fort Worth Center
Mon 11:33:32 AM 34.9297 -97.3167 333° Northwest 324 373 11,100 -484 Descending Fort Worth Center
Mon 11:34:08 AM 34.9697 -97.3406 334° Northwest 323 372 11,100 -98 Level Fort Worth Center
Mon 11:34:33 AM 35.0092 -97.3642 334° Northwest 320 368 11,000 -774 Descending Fort Worth Center
Mon 11:35:10 AM 35.0514 -97.3806 342° North 320 368 10,300 -1,600 Descending Fort Worth Center
Mon 11:35:33 AM 35.0928 -97.3958 343° North 307 353 9,400 -1,769 Descending Fort Worth Center
Mon 11:36:28 AM 35.1633 -97.4222 343° North 280 322 8,000 -1,647 Descending Fort Worth Center
Mon 11:37:15 AM 35.2197 -97.4431 343° North 281 323 6,600 -1,672 Descending Fort Worth Center
Mon 11:37:29 AM 35.2361 -97.4481 346° North 275 316 6,300 -1,703 Descending Fort Worth Center
Mon 11:38:29 AM 35.3086 -97.4739 344° North 272 313 4,500 -1,255 Descending Fort Worth Center
Mon 11:39:19 AM 35.3675 -97.4947 344° North 273 314 4,000 -436 Descending Fort Worth Center
Mon 11:39:24 AM 35.3744 -97.4961 351° North 263 303 4,100 91 Climbing Fort Worth Center
Mon 11:40:25 AM 35.4506 -97.4983 359° North 252 290 4,100 -50 Level Fort Worth Center
Mon 11:41:23 AM 35.5125 -97.5028 357° North 257 296 4,000  Descending Fort Worth Center
Mon 11:41:25 AM 35.5206 -97.5017 North 254 292 4,100  Climbing Fort Worth Center
Mon 11:42:25 AM 35.5806 -97.5069 356° North 249 287 4,000  Descending Fort Worth Center
Mon 11:42:26 AM 35.5844 -97.5086 341° North 228 262 4,100 98 Climbing Fort Worth Center
Mon 11:43:26 AM 35.5997 -97.5678 288° West 185 213 4,100 -98 Level Fort Worth Center
Mon 11:43:27 AM 35.6017 -97.5600 73° East 207 238 4,000 -984 Descending Fort Worth Center
Mon 11:44:27 AM 35.5706 -97.6064 231° Southwest 169 194 3,100 -871 Descending Fort Worth Center
Mon 11:44:29 AM 35.5692 -97.6078 219° Southwest 185 213 3,100  Level Fort Worth Center
Mon 11:45:28 AM 35.5283 -97.6058 178° South 151 174 3,100 -97 Level Fort Worth Center
Mon 11:45:31 AM 35.5267 -97.6075 219° Southwest 164 189 3,000 -200 Descending Fort Worth Center
Mon 11:46:28 AM 35.4839 -97.6058 178° South 148 170 2,900 -97 Descending Fort Worth Center
Mon 11:46:33 AM 35.4858 -97.6069 335° Northwest 155 178 2,900 -448 Level Fort Worth Center
Mon 11:47:35 AM 35.4592 -97.6075 181° South 117 135 2,400 -537 Descending Fort Worth Center
Mon 11:48:36 AM 35.4272 -97.6078 180° South 94 108 1,800 -484 Descending Fort Worth Center
Mon 11:48:37 AM 35.4322 -97.6069 North 103 119 1,900 -381 Climbing Fort Worth Center
Mon 11:49:39 AM 35.4014 -97.6064 179° South 102 117 1,400 -484 Descending Fort Worth Center

Login

Don't have an account? Register now (free) for customized features, flight alerts, and more!